createdAt,value
2022-11-09T00:00:45.388Z,23.40
2022-11-09T00:06:47.590Z,23.17
2022-11-09T00:12:49.664Z,22.23
2022-11-09T00:18:53.613Z,22.37
2022-11-09T00:24:55.819Z,20.45
2022-11-09T00:31:07.114Z,20.83
2022-11-09T00:37:09.345Z,23.50
2022-11-09T00:43:14.243Z,21.42
2022-11-09T00:49:16.433Z,22.42
2022-11-09T00:55:21.376Z,23.30
2022-11-09T01:01:23.847Z,26.20
2022-11-09T01:07:26.441Z,22.90
2022-11-09T01:13:28.872Z,22.95
2022-11-09T01:19:30.880Z,23.20
2022-11-09T01:25:33.078Z,25.43
2022-11-09T01:31:35.302Z,26.27
2022-11-09T01:37:37.625Z,26.47
2022-11-09T01:43:39.755Z,26.85
2022-11-09T01:49:52.314Z,27.23
2022-11-09T01:56:00.215Z,26.80
2022-11-09T02:02:03.051Z,25.42
2022-11-09T02:08:07.032Z,25.90
2022-11-09T02:14:13.222Z,25.45
2022-11-09T02:20:16.109Z,25.70
2022-11-09T02:26:42.788Z,26.65
2022-11-09T02:32:46.100Z,25.08
2022-11-09T02:38:48.619Z,24.60
2022-11-09T02:44:57.394Z,26.92
2022-11-09T02:50:59.930Z,26.58
2022-11-09T02:57:02.387Z,24.90
2022-11-09T03:09:12.153Z,24.20
2022-11-09T03:15:15.149Z,25.73
2022-11-09T03:21:24.662Z,25.13
2022-11-09T03:54:27.451Z,23.48
2022-11-09T04:13:45.302Z,23.15
2022-11-09T04:33:14.750Z,26.00
2022-11-09T04:39:16.815Z,22.88
2022-11-09T04:51:49.309Z,23.52
2022-11-09T04:57:51.371Z,24.53
2022-11-09T05:10:24.727Z,21.48
2022-11-09T05:16:28.207Z,25.35
2022-11-09T05:22:48.941Z,20.98
2022-11-09T05:28:53.125Z,23.05
2022-11-09T05:34:55.194Z,21.42
2022-11-09T05:40:57.350Z,24.13
2022-11-09T05:46:59.449Z,23.70
2022-11-09T05:53:02.190Z,24.60
2022-11-09T06:05:07.106Z,26.40
2022-11-09T06:17:14.146Z,26.15
2022-11-09T06:23:16.492Z,20.65
2022-11-09T06:29:20.100Z,22.67
2022-11-09T06:35:22.266Z,23.27
2022-11-09T06:41:24.795Z,24.63
2022-11-09T06:47:28.294Z,31.95
2022-11-09T06:53:31.958Z,26.98
2022-11-09T06:59:35.179Z,28.35
2022-11-09T07:05:40.877Z,25.02
2022-11-09T07:11:42.979Z,21.67
2022-11-09T07:17:45.263Z,19.73
2022-11-09T07:23:48.666Z,21.75
2022-11-09T07:29:50.958Z,17.77
2022-11-09T07:35:53.094Z,22.13
2022-11-09T07:41:55.939Z,23.45
2022-11-09T07:48:07.054Z,24.38
2022-11-09T07:54:10.900Z,24.83
2022-11-09T08:00:13.543Z,20.90
2022-11-09T08:12:21.665Z,23.33
2022-11-09T08:18:24.467Z,26.75
2022-11-09T08:24:27.021Z,26.92
2022-11-09T08:30:29.527Z,19.65
2022-11-09T08:36:32.887Z,21.20
2022-11-09T08:42:35.926Z,21.42
2022-11-09T08:48:38.253Z,20.38
2022-11-09T08:54:40.479Z,18.75
2022-11-09T09:00:42.711Z,20.17
2022-11-09T09:06:45.150Z,21.02
2022-11-09T09:12:47.548Z,22.15
2022-11-09T09:18:49.719Z,21.45
2022-11-09T09:24:52.062Z,23.83
2022-11-09T09:30:54.662Z,23.58
2022-11-09T09:36:56.845Z,21.65
2022-11-09T09:42:59.281Z,21.65
2022-11-09T09:49:15.677Z,20.33
2022-11-09T09:55:22.791Z,19.05
2022-11-09T10:01:35.335Z,19.10
2022-11-09T10:08:16.314Z,19.77
2022-11-09T10:14:50.692Z,19.60
2022-11-09T10:21:04.870Z,18.30
2022-11-09T10:27:25.662Z,18.75
2022-11-09T10:33:28.664Z,19.00
2022-11-09T10:39:40.542Z,23.25
2022-11-09T10:46:07.727Z,18.95
2022-11-09T10:52:47.362Z,18.13
2022-11-09T10:59:33.364Z,19.73
2022-11-09T11:06:02.191Z,19.27
2022-11-09T11:12:23.357Z,18.23
2022-11-09T11:18:48.161Z,17.70
2022-11-09T11:25:29.560Z,18.58
2022-11-09T11:31:50.268Z,17.77
2022-11-09T11:38:32.513Z,17.58
2022-11-09T11:45:25.573Z,19.00
2022-11-09T11:52:02.851Z,16.98
2022-11-09T11:58:42.121Z,17.80
2022-11-09T12:05:21.321Z,20.13
2022-11-09T12:11:45.156Z,17.02
2022-11-09T12:18:36.425Z,17.77
2022-11-09T12:25:02.926Z,19.55
2022-11-09T12:31:42.588Z,18.73
2022-11-09T12:38:24.207Z,16.73
2022-11-09T12:45:21.726Z,15.57
2022-11-09T12:51:42.769Z,16.63
2022-11-09T12:58:04.367Z,16.27
2022-11-09T13:04:26.059Z,17.10
2022-11-09T13:10:46.849Z,16.98
2022-11-09T13:17:26.763Z,16.60
2022-11-09T13:24:06.868Z,17.67
2022-11-09T13:30:28.859Z,15.25
2022-11-09T13:37:30.678Z,14.85
2022-11-09T13:44:09.179Z,14.90
2022-11-09T13:50:32.580Z,14.25
2022-11-09T13:56:53.906Z,16.63
2022-11-09T14:03:27.051Z,14.45
2022-11-09T14:10:19.646Z,13.87
2022-11-09T14:17:04.554Z,14.65
2022-11-09T14:23:30.277Z,15.88
2022-11-09T14:29:54.269Z,24.73
2022-11-09T14:36:15.491Z,24.67
2022-11-09T14:42:36.453Z,31.73
2022-11-09T14:48:59.872Z,29.90
2022-11-09T14:55:23.248Z,28.17
2022-11-09T15:02:04.119Z,30.77
2022-11-09T15:08:26.164Z,29.30
2022-11-09T15:14:55.937Z,29.58
2022-11-09T15:21:18.274Z,29.77
2022-11-09T15:27:39.385Z,32.72
2022-11-09T15:33:59.975Z,29.95
2022-11-09T15:40:24.792Z,31.45
2022-11-09T15:46:51.488Z,30.58
2022-11-09T15:53:13.608Z,31.67
2022-11-09T15:59:34.847Z,28.50
2022-11-09T16:05:55.790Z,27.67
2022-11-09T16:12:16.931Z,29.73
2022-11-09T16:18:37.609Z,29.35
2022-11-09T16:24:58.633Z,29.42
2022-11-09T16:31:40.968Z,27.00
2022-11-09T16:38:03.501Z,26.95
2022-11-09T16:44:25.340Z,28.08
2022-11-09T16:50:47.519Z,28.80
2022-11-09T16:57:08.315Z,32.80
2022-11-09T17:03:29.218Z,30.73
2022-11-09T17:09:49.713Z,36.83
2022-11-09T17:16:13.344Z,33.72
2022-11-09T17:22:33.942Z,34.22
2022-11-09T17:28:54.748Z,36.13
2022-11-09T17:35:15.708Z,35.15
2022-11-09T17:41:42.310Z,35.78
2022-11-09T17:48:04.764Z,34.95
2022-11-09T17:54:25.527Z,33.45
2022-11-09T18:00:46.748Z,35.40
2022-11-09T18:07:07.944Z,34.45
2022-11-09T18:13:28.774Z,35.30
2022-11-09T18:19:49.507Z,33.88
2022-11-09T18:26:13.417Z,32.13
2022-11-09T18:32:34.300Z,32.35
2022-11-09T18:38:56.179Z,32.03
2022-11-09T18:45:17.525Z,35.20
2022-11-09T18:51:38.071Z,32.85
2022-11-09T18:57:59.112Z,34.22
2022-11-09T19:04:20.121Z,33.45
2022-11-09T19:10:40.804Z,39.55
2022-11-09T19:17:01.743Z,37.53
2022-11-09T19:23:22.755Z,37.85
2022-11-09T19:29:43.432Z,38.83
2022-11-09T19:36:28.615Z,41.05
2022-11-09T19:42:45.433Z,41.25
2022-11-09T19:49:07.913Z,41.50
2022-11-09T19:55:29.179Z,39.60
2022-11-09T20:01:49.627Z,40.08
2022-11-09T20:08:10.351Z,42.80
2022-11-09T20:14:31.737Z,39.83
2022-11-09T20:20:54.322Z,42.75
2022-11-09T20:27:15.134Z,43.22
2022-11-09T20:33:36.370Z,45.13
2022-11-09T20:39:57.430Z,44.38
2022-11-09T20:46:22.015Z,47.25
2022-11-09T20:52:42.851Z,48.70
2022-11-09T20:59:04.496Z,48.55
2022-11-09T21:05:25.239Z,47.85
2022-11-09T21:12:04.701Z,48.58
2022-11-09T21:18:26.306Z,48.67
2022-11-09T21:25:05.748Z,47.88
2022-11-09T21:31:26.855Z,46.42
2022-11-09T21:37:47.993Z,48.97
2022-11-09T21:44:10.796Z,59.30
2022-11-09T21:50:31.744Z,63.17
2022-11-09T21:56:53.338Z,65.57
2022-11-09T22:03:14.304Z,67.07
2022-11-09T22:09:57.780Z,91.30
2022-11-09T22:16:16.260Z,95.05
2022-11-09T22:22:37.523Z,86.57
2022-11-09T22:28:59.255Z,82.20
2022-11-09T22:35:20.053Z,62.88
2022-11-09T22:41:41.194Z,54.50
2022-11-09T22:48:02.039Z,49.97
2022-11-09T22:54:22.914Z,48.10
2022-11-09T23:00:43.917Z,48.58
2022-11-09T23:07:04.473Z,50.75
2022-11-09T23:13:25.810Z,48.03
2022-11-09T23:19:46.906Z,48.38
2022-11-09T23:26:08.645Z,49.20
2022-11-09T23:32:29.563Z,46.97
2022-11-09T23:38:50.724Z,49.63
2022-11-09T23:45:11.364Z,48.70
2022-11-09T23:51:32.004Z,51.53
2022-11-09T23:57:52.929Z,49.42
